createdAt,value
2022-09-17T00:00:47.574Z,2.38
2022-09-17T00:03:15.531Z,2.42
2022-09-17T00:05:42.824Z,1.63
2022-09-17T00:08:12.403Z,2.95
2022-09-17T00:10:41.543Z,3.25
2022-09-17T00:13:09.686Z,1.30
2022-09-17T00:15:42.318Z,1.77
2022-09-17T00:18:09.739Z,2.60
2022-09-17T00:20:39.303Z,3.05
2022-09-17T00:23:06.649Z,2.22
2022-09-17T00:25:33.849Z,2.72
2022-09-17T00:28:01.419Z,1.50
2022-09-17T00:30:28.560Z,1.00
2022-09-17T00:32:57.060Z,2.47
2022-09-17T00:35:24.397Z,6.22
2022-09-17T00:37:51.936Z,2.63
2022-09-17T00:40:20.588Z,2.50
2022-09-17T00:42:47.990Z,3.30
2022-09-17T00:45:15.295Z,3.67
2022-09-17T00:47:46.974Z,2.03
2022-09-17T00:50:19.790Z,3.13
2022-09-17T00:52:50.601Z,2.28
2022-09-17T00:55:23.830Z,2.45
2022-09-17T00:57:53.959Z,1.90
2022-09-17T01:00:21.887Z,3.33
2022-09-17T01:03:08.787Z,2.58
2022-09-17T01:05:44.327Z,2.63
2022-09-17T01:08:22.193Z,2.03
2022-09-17T01:11:16.152Z,1.63
2022-09-17T01:13:56.326Z,1.83
2022-09-17T01:16:33.247Z,2.65
2022-09-17T01:19:16.516Z,2.25
2022-09-17T01:21:55.240Z,1.10
2022-09-17T01:24:47.952Z,1.75
2022-09-17T01:27:57.208Z,1.90
2022-09-17T01:31:00.233Z,1.88
2022-09-17T01:33:35.580Z,1.38
2022-09-17T01:36:13.704Z,4.68
2022-09-17T01:38:45.568Z,1.58
2022-09-17T01:41:25.917Z,1.10
2022-09-17T01:43:57.712Z,1.20
2022-09-17T01:46:31.567Z,2.90
2022-09-17T01:49:01.860Z,1.23
2022-09-17T01:51:31.945Z,3.67
2022-09-17T01:54:04.059Z,6.00
2022-09-17T01:56:36.837Z,1.75
2022-09-17T01:59:09.959Z,2.45
2022-09-17T02:01:41.859Z,1.93
2022-09-17T02:04:14.793Z,1.65
2022-09-17T02:06:46.335Z,1.88
2022-09-17T02:09:17.919Z,2.75
2022-09-17T02:11:51.076Z,1.17
2022-09-17T02:14:23.020Z,3.87
2022-09-17T02:16:56.733Z,1.88
2022-09-17T02:19:27.199Z,1.48
2022-09-17T02:22:01.398Z,2.55
2022-09-17T02:24:35.613Z,1.63
2022-09-17T02:27:07.494Z,1.38
2022-09-17T02:29:36.765Z,1.45
2022-09-17T02:32:06.165Z,0.80
2022-09-17T02:34:33.548Z,2.55
2022-09-17T02:37:01.313Z,1.58
2022-09-17T02:39:28.600Z,1.30
2022-09-17T02:42:04.192Z,3.40
2022-09-17T02:44:38.050Z,4.03
2022-09-17T02:47:23.295Z,1.63
2022-09-17T02:50:11.919Z,2.30
2022-09-17T02:52:49.132Z,1.58
2022-09-17T02:55:20.320Z,1.50
2022-09-17T02:57:54.240Z,1.02
2022-09-17T03:00:23.016Z,1.00
2022-09-17T03:02:59.597Z,0.93
2022-09-17T03:05:28.675Z,1.50
2022-09-17T03:07:56.213Z,1.13
2022-09-17T03:10:23.511Z,1.77
2022-09-17T03:12:51.520Z,3.08
2022-09-17T03:15:18.617Z,2.20
2022-09-17T03:17:48.969Z,2.45
2022-09-17T03:20:19.761Z,1.60
2022-09-17T03:22:47.162Z,4.25
2022-09-17T03:25:14.390Z,1.75
2022-09-17T03:27:41.460Z,2.65
2022-09-17T03:30:09.280Z,2.53
2022-09-17T03:32:36.359Z,1.92
2022-09-17T03:35:03.634Z,3.13
2022-09-17T03:37:33.225Z,1.38
2022-09-17T03:40:00.595Z,2.85
2022-09-17T03:42:27.797Z,3.88
2022-09-17T03:44:54.882Z,2.35
2022-09-17T03:47:21.955Z,1.27
2022-09-17T03:49:49.065Z,2.10
2022-09-17T03:52:16.166Z,4.70
2022-09-17T03:54:44.588Z,1.58
2022-09-17T03:57:11.682Z,3.40
2022-09-17T03:59:38.763Z,2.95
2022-09-17T04:02:05.896Z,2.78
2022-09-17T04:04:33.071Z,1.77
2022-09-17T04:07:00.148Z,0.93
2022-09-17T04:09:27.238Z,3.22
2022-09-17T04:11:55.640Z,2.03
2022-09-17T04:14:22.978Z,4.25
2022-09-17T04:16:50.160Z,1.70
2022-09-17T04:19:17.296Z,5.00
2022-09-17T04:21:44.423Z,2.78
2022-09-17T04:24:11.501Z,1.77
2022-09-17T04:26:38.591Z,3.30
2022-09-17T04:29:07.270Z,1.80
2022-09-17T04:31:34.507Z,3.20
2022-09-17T04:34:01.743Z,4.35
2022-09-17T04:36:28.915Z,3.53
2022-09-17T04:38:56.005Z,1.65
2022-09-17T04:41:23.108Z,2.10
2022-09-17T04:43:50.181Z,2.95
2022-09-17T04:46:18.713Z,1.15
2022-09-17T04:48:45.844Z,2.50
2022-09-17T04:51:12.943Z,1.98
2022-09-17T04:53:40.073Z,1.92
2022-09-17T04:56:07.151Z,3.70
2022-09-17T04:58:34.256Z,2.10
2022-09-17T05:01:01.450Z,2.50
2022-09-17T05:03:29.934Z,1.55
2022-09-17T05:05:57.308Z,2.28
2022-09-17T05:08:24.400Z,6.72
2022-09-17T05:10:51.856Z,6.38
2022-09-17T05:13:18.966Z,5.63
2022-09-17T05:15:46.170Z,3.35
2022-09-17T05:18:13.417Z,5.60
2022-09-17T05:20:42.814Z,10.68
2022-09-17T05:23:09.908Z,4.88
2022-09-17T05:25:36.999Z,2.97
2022-09-17T05:28:04.282Z,2.75
2022-09-17T05:30:31.545Z,3.25
2022-09-17T05:33:00.368Z,4.53
2022-09-17T05:35:37.153Z,4.18
2022-09-17T05:38:06.248Z,5.60
2022-09-17T05:40:33.626Z,5.63
2022-09-17T05:43:02.079Z,7.53
2022-09-17T05:45:29.575Z,5.63
2022-09-17T05:47:57.397Z,3.78
2022-09-17T05:50:24.643Z,3.63
2022-09-17T05:52:52.044Z,8.32
2022-09-17T05:55:22.228Z,5.07
2022-09-17T05:57:49.524Z,3.70
2022-09-17T06:00:17.484Z,11.63
2022-09-17T06:05:35.583Z,4.68
2022-09-17T06:08:02.927Z,7.30
2022-09-17T06:10:31.746Z,3.53
2022-09-17T06:12:59.248Z,5.30
2022-09-17T06:15:27.779Z,6.88
2022-09-17T06:17:55.094Z,4.68
2022-09-17T06:20:22.461Z,6.13
2022-09-17T06:22:55.212Z,5.60
2022-09-17T06:25:22.304Z,4.10
2022-09-17T06:27:50.742Z,15.45
2022-09-17T06:30:18.236Z,4.93
2022-09-17T06:32:45.427Z,5.40
2022-09-17T06:35:12.537Z,3.72
2022-09-17T06:37:39.772Z,5.55
2022-09-17T06:40:08.412Z,4.25
2022-09-17T06:42:35.555Z,2.75
2022-09-17T06:45:09.321Z,5.63
2022-09-17T06:47:37.305Z,3.55
2022-09-17T06:50:05.082Z,3.53
2022-09-17T06:52:32.183Z,5.18
2022-09-17T06:54:59.255Z,6.22
2022-09-17T06:57:26.624Z,4.53
2022-09-17T06:59:53.769Z,3.90
2022-09-17T07:02:22.264Z,4.30
2022-09-17T07:04:49.547Z,4.18
2022-09-17T07:07:16.641Z,3.63
2022-09-17T07:09:43.711Z,4.45
2022-09-17T07:12:10.822Z,5.75
2022-09-17T07:14:37.891Z,4.10
2022-09-17T07:17:04.964Z,8.05
2022-09-17T07:19:33.428Z,4.28
2022-09-17T07:22:00.508Z,3.45
2022-09-17T07:24:32.601Z,5.68
2022-09-17T07:27:00.054Z,4.75
2022-09-17T07:29:27.521Z,5.82
2022-09-17T07:31:54.800Z,15.60
2022-09-17T07:34:21.962Z,21.75
2022-09-17T07:36:50.372Z,19.38
2022-09-17T07:39:17.437Z,12.88
2022-09-17T07:41:44.602Z,19.05
2022-09-17T07:44:11.674Z,14.88
2022-09-17T07:46:38.759Z,13.10
2022-09-17T07:49:05.892Z,11.07
2022-09-17T07:51:32.968Z,11.65
2022-09-17T07:54:01.381Z,11.38
2022-09-17T07:56:28.542Z,10.55
2022-09-17T07:58:55.901Z,10.73
2022-09-17T08:01:23.263Z,12.45
2022-09-17T08:03:51.806Z,7.60
2022-09-17T08:06:22.332Z,10.07
2022-09-17T08:08:49.543Z,12.25
2022-09-17T08:11:38.329Z,14.98
2022-09-17T08:14:06.813Z,10.32
2022-09-17T08:16:33.997Z,13.02
2022-09-17T08:19:01.159Z,7.00
2022-09-17T08:21:28.243Z,9.85
2022-09-17T08:23:55.339Z,12.55
2022-09-17T08:26:24.035Z,12.80
2022-09-17T08:28:53.645Z,9.43
2022-09-17T08:31:21.360Z,9.23
2022-09-17T08:33:48.619Z,9.77
2022-09-17T08:36:17.420Z,8.93
2022-09-17T08:38:44.956Z,9.60
2022-09-17T08:41:22.826Z,9.95
2022-09-17T08:44:07.128Z,12.57
2022-09-17T08:46:41.703Z,7.25
2022-09-17T08:49:16.195Z,9.40
2022-09-17T08:51:53.738Z,13.13
2022-09-17T08:54:27.753Z,7.50
2022-09-17T08:57:11.861Z,14.18
2022-09-17T08:59:45.756Z,9.88
2022-09-17T09:02:24.760Z,6.38
2022-09-17T09:05:01.552Z,9.55
2022-09-17T09:07:34.580Z,7.88
2022-09-17T09:10:12.565Z,9.45
2022-09-17T09:12:42.071Z,8.60
2022-09-17T09:15:23.773Z,7.97
2022-09-17T09:17:52.627Z,8.65
2022-09-17T09:20:28.196Z,5.68
2022-09-17T09:22:56.908Z,3.90
2022-09-17T09:25:25.924Z,6.40
2022-09-17T09:28:21.515Z,9.07
2022-09-17T09:31:03.431Z,6.57
2022-09-17T09:33:33.305Z,7.88
2022-09-17T09:36:00.668Z,8.95
2022-09-17T09:38:32.482Z,9.32
2022-09-17T09:41:06.403Z,8.05
2022-09-17T09:44:02.294Z,13.05
2022-09-17T09:46:42.459Z,9.70
2022-09-17T09:49:22.543Z,10.27
2022-09-17T09:52:02.643Z,5.93
2022-09-17T09:54:47.434Z,13.88
2022-09-17T09:57:18.355Z,7.47
2022-09-17T09:59:45.615Z,7.72
2022-09-17T10:02:14.204Z,10.50
2022-09-17T10:04:41.395Z,11.73
2022-09-17T10:07:10.856Z,8.40
2022-09-17T10:09:42.487Z,9.15
2022-09-17T10:12:17.443Z,12.23
2022-09-17T10:14:45.817Z,16.85
2022-09-17T10:17:20.929Z,21.83
2022-09-17T10:20:13.113Z,14.38
2022-09-17T10:22:42.008Z,16.58
2022-09-17T10:25:25.025Z,13.80
2022-09-17T10:27:52.264Z,15.95
2022-09-17T10:30:19.536Z,13.93
2022-09-17T10:33:14.897Z,10.48
2022-09-17T10:35:54.904Z,10.30
2022-09-17T10:38:28.299Z,11.68
2022-09-17T10:41:09.871Z,8.35
2022-09-17T10:43:37.208Z,8.95
2022-09-17T10:46:04.828Z,7.75
2022-09-17T10:48:38.478Z,9.13
2022-09-17T10:51:06.478Z,5.93
2022-09-17T10:54:04.845Z,8.27
2022-09-17T10:56:34.530Z,8.85
2022-09-17T10:59:17.797Z,7.68
2022-09-17T11:01:57.238Z,5.43
2022-09-17T11:04:32.036Z,6.65
2022-09-17T11:07:28.820Z,10.82
2022-09-17T11:10:05.886Z,7.07
2022-09-17T11:12:41.931Z,7.85
2022-09-17T11:15:27.525Z,6.32
2022-09-17T11:18:26.690Z,7.82
2022-09-17T11:21:36.288Z,7.60
2022-09-17T11:24:43.272Z,4.57
2022-09-17T11:27:23.222Z,8.98
2022-09-17T11:30:10.102Z,5.93
2022-09-17T11:33:03.890Z,6.57
2022-09-17T11:35:35.398Z,6.82
2022-09-17T11:38:10.588Z,7.70
2022-09-17T11:40:43.323Z,6.00
2022-09-17T11:43:20.730Z,5.47
2022-09-17T11:45:57.776Z,6.60
2022-09-17T11:48:33.025Z,8.30
2022-09-17T11:51:06.997Z,5.97
2022-09-17T11:53:40.659Z,9.32
2022-09-17T11:56:17.654Z,8.05
2022-09-17T11:58:51.176Z,5.25
2022-09-17T12:01:26.525Z,5.25
2022-09-17T12:03:58.225Z,7.68
2022-09-17T12:06:34.020Z,5.38
2022-09-17T12:09:12.011Z,9.10
2022-09-17T12:11:44.378Z,7.90
2022-09-17T12:14:18.976Z,8.00
2022-09-17T12:16:50.491Z,6.75
2022-09-17T12:19:24.595Z,10.32
2022-09-17T12:24:24.358Z,7.63
2022-09-17T12:27:01.790Z,7.25
2022-09-17T12:29:47.887Z,10.20
2022-09-17T12:32:34.108Z,13.93
2022-09-17T12:35:13.571Z,10.23
2022-09-17T12:37:47.487Z,7.53
2022-09-17T12:40:24.827Z,6.88
2022-09-17T12:43:11.148Z,7.05
2022-09-17T12:45:57.567Z,4.75
2022-09-17T12:48:41.538Z,4.82
2022-09-17T12:51:21.444Z,5.53
2022-09-17T12:53:58.440Z,7.65
2022-09-17T12:56:38.598Z,5.18
2022-09-17T12:59:10.143Z,6.65
2022-09-17T13:01:46.030Z,7.18
2022-09-17T13:04:43.554Z,5.63
2022-09-17T13:07:40.336Z,6.78
2022-09-17T13:10:32.944Z,9.38
2022-09-17T13:13:09.710Z,5.75
2022-09-17T13:15:50.065Z,6.63
2022-09-17T13:18:27.378Z,5.65
2022-09-17T13:21:00.969Z,7.18
2022-09-17T13:23:33.815Z,7.10
2022-09-17T13:26:01.891Z,9.18
2022-09-17T13:28:43.286Z,6.07
2022-09-17T13:33:55.494Z,4.97
2022-09-17T13:36:44.188Z,7.57
2022-09-17T13:39:39.250Z,6.80
2022-09-17T13:42:11.882Z,6.95
2022-09-17T13:44:43.600Z,8.55
2022-09-17T13:47:18.792Z,5.82
2022-09-17T13:49:49.752Z,6.28
2022-09-17T13:52:33.447Z,5.43
2022-09-17T13:55:01.958Z,8.63
2022-09-17T13:57:31.720Z,7.68
2022-09-17T14:00:01.263Z,10.13
2022-09-17T14:02:34.606Z,7.38
2022-09-17T14:05:35.849Z,8.73
2022-09-17T14:08:28.803Z,6.45
2022-09-17T14:10:58.065Z,8.13
2022-09-17T14:13:49.230Z,6.50
2022-09-17T14:16:44.467Z,5.13
2022-09-17T14:19:33.351Z,9.05
2022-09-17T14:22:02.903Z,9.15
2022-09-17T14:24:37.025Z,6.25
2022-09-17T14:30:02.981Z,4.68
2022-09-17T14:32:37.882Z,5.65
2022-09-17T14:35:19.773Z,7.53
2022-09-17T14:37:54.658Z,9.85
2022-09-17T14:40:22.662Z,6.10
2022-09-17T14:42:54.317Z,7.68
2022-09-17T14:45:29.134Z,12.95
2022-09-17T14:48:20.233Z,8.80
2022-09-17T14:50:47.439Z,5.63
2022-09-17T14:53:16.802Z,4.90
2022-09-17T14:55:45.735Z,5.53
2022-09-17T14:58:29.718Z,2.95
2022-09-17T15:00:56.873Z,8.15
2022-09-17T15:03:25.492Z,5.18
2022-09-17T15:05:53.180Z,4.40
2022-09-17T15:08:22.043Z,3.17
2022-09-17T15:10:52.115Z,9.10
2022-09-17T15:13:23.796Z,3.72
2022-09-17T15:15:53.913Z,4.03
2022-09-17T15:18:22.636Z,6.10
2022-09-17T15:20:54.362Z,4.72
2022-09-17T15:23:26.035Z,5.65
2022-09-17T15:25:57.294Z,4.97
2022-09-17T15:28:34.385Z,6.00
2022-09-17T15:31:01.733Z,3.70
2022-09-17T15:33:30.053Z,3.72
2022-09-17T15:36:09.767Z,5.32
2022-09-17T15:38:37.162Z,4.88
2022-09-17T15:41:30.858Z,5.40
2022-09-17T15:44:29.040Z,2.22
2022-09-17T15:47:35.706Z,6.85
2022-09-17T15:50:17.145Z,6.63
2022-09-17T15:52:46.222Z,2.13
2022-09-17T15:55:31.632Z,4.28
2022-09-17T15:58:00.143Z,3.47
2022-09-17T16:00:27.389Z,5.47
2022-09-17T16:02:54.732Z,4.70
2022-09-17T16:05:51.742Z,7.80
2022-09-17T16:08:23.885Z,3.45
2022-09-17T16:10:51.709Z,3.47
2022-09-17T16:13:19.197Z,3.13
2022-09-17T16:15:46.650Z,3.35
2022-09-17T16:18:14.894Z,3.60
2022-09-17T16:20:42.276Z,2.92
2022-09-17T16:23:09.489Z,2.65
2022-09-17T16:25:39.249Z,4.22
2022-09-17T16:28:11.917Z,2.13
2022-09-17T16:30:43.467Z,4.68
2022-09-17T16:33:12.172Z,2.88
2022-09-17T16:35:39.390Z,5.57
2022-09-17T16:38:07.274Z,4.00
2022-09-17T16:40:34.802Z,5.72
2022-09-17T16:43:03.783Z,4.90
2022-09-17T16:45:31.264Z,2.38
2022-09-17T16:47:58.387Z,3.78
2022-09-17T16:50:25.560Z,5.47
2022-09-17T16:52:53.056Z,3.20
2022-09-17T16:55:20.905Z,3.47
2022-09-17T16:57:48.449Z,7.47
2022-09-17T17:00:19.342Z,2.75
2022-09-17T17:02:53.230Z,3.90
2022-09-17T17:07:47.664Z,4.63
2022-09-17T17:10:15.037Z,3.60
2022-09-17T17:12:42.164Z,2.38
2022-09-17T17:15:09.770Z,3.05
2022-09-17T17:17:38.411Z,3.88
2022-09-17T17:20:08.270Z,3.13
2022-09-17T17:22:35.523Z,2.88
2022-09-17T17:25:03.145Z,2.70
2022-09-17T17:27:30.243Z,4.28
2022-09-17T17:29:57.382Z,3.22
2022-09-17T17:32:24.518Z,1.85
2022-09-17T17:34:53.000Z,2.33
2022-09-17T17:37:20.063Z,2.90
2022-09-17T17:39:47.153Z,3.88
2022-09-17T17:42:14.243Z,4.30
2022-09-17T17:44:41.366Z,6.30
2022-09-17T17:47:08.461Z,4.25
2022-09-17T17:49:35.572Z,4.50
2022-09-17T17:52:04.028Z,4.80
2022-09-17T17:54:31.132Z,3.50
2022-09-17T17:56:58.403Z,2.45
2022-09-17T17:59:25.483Z,3.33
2022-09-17T18:01:52.705Z,4.13
2022-09-17T18:04:20.004Z,3.95
2022-09-17T18:06:47.100Z,2.58
2022-09-17T18:09:15.568Z,4.60
2022-09-17T18:11:42.691Z,3.30
2022-09-17T18:14:12.766Z,3.38
2022-09-17T18:16:40.283Z,2.83
2022-09-17T18:19:09.599Z,4.90
2022-09-17T18:21:36.665Z,3.40
2022-09-17T18:24:04.208Z,2.03
2022-09-17T18:26:32.752Z,3.72
2022-09-17T18:29:02.265Z,4.18
2022-09-17T18:31:33.031Z,3.30
2022-09-17T18:34:02.254Z,3.53
2022-09-17T18:36:32.168Z,1.77
2022-09-17T18:39:11.037Z,4.13
2022-09-17T18:41:49.575Z,1.60
2022-09-17T18:44:16.684Z,2.78
2022-09-17T18:46:43.814Z,4.65
2022-09-17T18:49:11.008Z,3.22
2022-09-17T18:51:38.132Z,6.20
2022-09-17T18:54:05.258Z,2.67
2022-09-17T18:56:32.791Z,3.38
2022-09-17T18:59:05.635Z,2.78
2022-09-17T19:01:35.605Z,6.18
2022-09-17T19:04:03.318Z,2.55
2022-09-17T19:06:30.526Z,4.00
2022-09-17T19:09:00.622Z,2.03
2022-09-17T19:11:28.080Z,5.45
2022-09-17T19:13:55.203Z,3.10
2022-09-17T19:16:23.935Z,1.98
2022-09-17T19:18:51.205Z,2.83
2022-09-17T19:21:19.681Z,2.50
2022-09-17T19:23:48.689Z,4.40
2022-09-17T19:26:17.503Z,3.28
2022-09-17T19:28:44.636Z,1.90
2022-09-17T19:31:13.534Z,3.75
2022-09-17T19:33:42.571Z,1.40
2022-09-17T19:36:12.225Z,1.98
2022-09-17T19:38:39.331Z,2.25
2022-09-17T19:41:09.277Z,3.47
2022-09-17T19:43:36.358Z,3.00
2022-09-17T19:46:06.246Z,3.10
2022-09-17T19:48:34.083Z,3.03
2022-09-17T19:51:03.313Z,3.97
2022-09-17T19:53:31.846Z,2.25
2022-09-17T19:55:58.939Z,2.28
2022-09-17T19:58:26.020Z,1.95
2022-09-17T20:00:55.043Z,1.98
2022-09-17T20:03:22.131Z,2.45
2022-09-17T20:05:49.208Z,1.95
2022-09-17T20:08:17.777Z,2.65
2022-09-17T20:10:44.921Z,2.70
2022-09-17T20:13:11.980Z,2.20
2022-09-17T20:15:39.119Z,3.10
2022-09-17T20:18:06.254Z,2.33
2022-09-17T20:20:33.323Z,2.47
2022-09-17T20:23:00.411Z,1.83
2022-09-17T20:25:28.824Z,4.60
2022-09-17T20:27:55.916Z,1.65
2022-09-17T20:30:23.056Z,2.17
2022-09-17T20:32:50.156Z,3.17
2022-09-17T20:35:17.256Z,2.15
2022-09-17T20:38:44.547Z,2.72
2022-09-17T20:40:32.808Z,1.63
2022-09-17T20:42:59.906Z,1.70
2022-09-17T20:45:26.979Z,2.65
2022-09-17T20:47:54.035Z,4.57
2022-09-17T20:50:21.120Z,1.25
2022-09-17T20:52:48.184Z,3.60
2022-09-17T20:55:15.428Z,2.08
2022-09-17T20:57:44.127Z,5.45
2022-09-17T21:00:12.228Z,3.50
2022-09-17T21:02:39.325Z,1.77
2022-09-17T21:05:07.361Z,2.65
2022-09-17T21:07:34.465Z,1.80
2022-09-17T21:10:01.681Z,1.92
2022-09-17T21:12:28.878Z,4.43
2022-09-17T21:14:57.285Z,1.50
2022-09-17T21:17:24.422Z,4.90
2022-09-17T21:19:51.535Z,2.35
2022-09-17T21:22:18.651Z,2.80
2022-09-17T21:24:45.791Z,1.75
2022-09-17T21:27:12.901Z,6.22
2022-09-17T21:29:39.989Z,1.55
2022-09-17T21:32:08.427Z,3.50
2022-09-17T21:34:35.528Z,1.65
2022-09-17T21:37:02.600Z,2.15
2022-09-17T21:39:29.667Z,4.20
2022-09-17T21:41:56.756Z,3.75
2022-09-17T21:44:23.855Z,1.70
2022-09-17T21:46:50.979Z,3.55
2022-09-17T21:49:19.574Z,3.17
2022-09-17T21:51:46.652Z,2.40
2022-09-17T21:54:15.412Z,4.50
2022-09-17T21:56:42.567Z,1.83
2022-09-17T21:59:12.203Z,3.85
2022-09-17T22:01:41.321Z,2.20
2022-09-17T22:04:10.448Z,5.22
2022-09-17T22:06:39.819Z,2.92
2022-09-17T22:09:08.240Z,1.85
2022-09-17T22:11:38.168Z,3.00
2022-09-17T22:14:06.917Z,4.20
2022-09-17T22:16:34.509Z,1.80
2022-09-17T22:19:02.301Z,3.38
2022-09-17T22:21:31.730Z,1.48
2022-09-17T22:24:01.812Z,1.30
2022-09-17T22:26:31.008Z,1.88
2022-09-17T22:29:01.461Z,4.55
2022-09-17T22:31:28.824Z,4.10
2022-09-17T22:33:55.983Z,1.98
2022-09-17T22:36:25.896Z,1.45
2022-09-17T22:38:55.309Z,2.25
2022-09-17T22:41:25.840Z,3.03
2022-09-17T22:43:53.943Z,2.10
2022-09-17T22:46:22.657Z,4.72
2022-09-17T22:48:49.949Z,1.90
2022-09-17T22:51:17.174Z,3.08
2022-09-17T22:53:44.782Z,1.52
2022-09-17T22:56:15.093Z,2.67
2022-09-17T22:58:43.609Z,2.97
2022-09-17T23:01:12.403Z,2.72
2022-09-17T23:03:40.367Z,4.15
2022-09-17T23:06:09.550Z,2.00
2022-09-17T23:08:37.093Z,3.13
2022-09-17T23:11:05.131Z,1.42
2022-09-17T23:13:32.241Z,4.40
2022-09-17T23:16:01.727Z,3.15
2022-09-17T23:18:29.100Z,3.08
2022-09-17T23:20:58.046Z,2.65
2022-09-17T23:23:25.356Z,1.42
2022-09-17T23:25:52.805Z,4.00
2022-09-17T23:28:20.281Z,3.30
2022-09-17T23:30:47.440Z,1.77
2022-09-17T23:33:15.927Z,2.08
2022-09-17T23:35:42.990Z,2.33
2022-09-17T23:38:10.084Z,2.85
2022-09-17T23:40:37.244Z,1.77
2022-09-17T23:43:04.493Z,2.00
2022-09-17T23:45:31.576Z,1.42
2022-09-17T23:47:58.680Z,1.90
2022-09-17T23:50:27.084Z,2.25
2022-09-17T23:52:54.155Z,2.47
2022-09-17T23:55:21.228Z,1.75
2022-09-17T23:57:48.320Z,2.92
